createdAt,value
2019-02-22T00:00:49.727Z,101851.02
2019-02-22T00:03:18.149Z,101850.00
2019-02-22T00:05:46.567Z,101862.83
2019-02-22T00:08:14.994Z,101861.08
2019-02-22T00:10:43.394Z,101862.97
2019-02-22T00:13:11.858Z,101868.92
2019-02-22T00:15:40.263Z,101872.89
2019-02-22T00:18:08.738Z,101873.52
2019-02-22T00:20:37.184Z,101871.30
2019-02-22T00:23:05.587Z,101867.69
2019-02-22T00:25:34.084Z,101873.16
2019-02-22T00:28:02.523Z,101876.24
2019-02-22T00:30:30.964Z,101880.87
2019-02-22T00:32:59.396Z,101881.36
2019-02-22T00:35:27.822Z,101882.38
2019-02-22T00:37:56.214Z,101883.34
2019-02-22T00:40:24.639Z,101881.98
2019-02-22T00:42:53.050Z,101878.27
2019-02-22T00:45:21.490Z,101874.17
2019-02-22T00:47:49.912Z,101874.30
2019-02-22T00:50:18.302Z,101871.92
2019-02-22T00:52:46.734Z,101876.91
2019-02-22T00:55:15.152Z,101870.34
2019-02-22T00:57:43.553Z,101877.04
2019-02-22T01:00:12.228Z,101872.80
2019-02-22T01:02:40.646Z,101881.36
2019-02-22T01:05:09.226Z,101880.61
2019-02-22T01:07:37.631Z,101883.48
2019-02-22T01:10:06.396Z,101888.95
2019-02-22T01:12:34.788Z,101889.69
2019-02-22T01:15:03.218Z,101889.83
2019-02-22T01:17:31.648Z,101893.58
2019-02-22T01:20:00.045Z,101895.78
2019-02-22T01:22:28.458Z,101900.77
2019-02-22T01:24:56.870Z,101899.39
2019-02-22T01:27:25.315Z,101906.58
2019-02-22T01:29:53.714Z,101904.51
2019-02-22T01:32:22.128Z,101900.77
2019-02-22T01:34:50.561Z,101899.53
2019-02-22T01:37:18.967Z,101910.95
2019-02-22T01:39:47.447Z,101915.05
2019-02-22T01:42:15.899Z,101904.39
2019-02-22T01:44:44.303Z,101902.53
2019-02-22T01:47:12.728Z,101910.21
2019-02-22T01:49:41.194Z,101916.55
2019-02-22T01:52:09.590Z,101918.41
2019-02-22T01:54:38.004Z,101919.91
2019-02-22T01:57:06.393Z,101920.79
2019-02-22T01:59:34.830Z,101924.53
2019-02-22T02:02:03.231Z,101929.34
2019-02-22T02:04:31.628Z,101932.08
2019-02-22T02:07:00.059Z,101936.18
2019-02-22T02:09:28.572Z,101932.21
2019-02-22T02:11:56.992Z,101934.59
2019-02-22T02:14:25.376Z,101940.28
2019-02-22T02:16:53.804Z,101942.30
2019-02-22T02:19:22.214Z,101934.72
2019-02-22T02:21:50.641Z,101934.72
2019-02-22T02:24:19.040Z,101936.22
2019-02-22T02:26:47.460Z,101939.70
2019-02-22T02:29:15.866Z,101937.10
2019-02-22T02:31:44.321Z,101940.81
2019-02-22T02:34:12.715Z,101938.08
2019-02-22T02:36:41.122Z,101938.95
2019-02-22T02:39:09.525Z,101941.20
2019-02-22T02:41:37.961Z,101941.20
2019-02-22T02:44:06.379Z,101944.06
2019-02-22T02:46:34.817Z,101947.29
2019-02-22T02:49:03.248Z,101942.56
2019-02-22T02:51:31.678Z,101948.03
2019-02-22T02:54:00.112Z,101945.92
2019-02-22T02:56:28.521Z,101944.42
2019-02-22T02:58:56.944Z,101953.63
2019-02-22T03:01:25.341Z,101950.38
2019-02-22T03:03:53.750Z,101947.16
2019-02-22T03:06:29.614Z,101945.30
2019-02-22T03:08:58.008Z,101948.66
2019-02-22T03:11:26.405Z,101938.34
2019-02-22T03:13:54.832Z,101944.83
2019-02-22T03:16:23.224Z,101952.40
2019-02-22T03:18:51.650Z,101948.92
2019-02-22T03:21:20.038Z,101948.79
2019-02-22T03:23:48.514Z,101954.88
2019-02-22T03:26:17.880Z,101946.94
2019-02-22T03:28:46.287Z,101948.44
2019-02-22T03:31:14.702Z,101943.45
2019-02-22T03:33:43.140Z,101948.56
2019-02-22T03:36:11.525Z,101944.33
2019-02-22T03:38:39.929Z,101946.19
2019-02-22T03:41:08.349Z,101940.38
2019-02-22T03:43:36.744Z,101947.20
2019-02-22T03:46:05.172Z,101953.02
2019-02-22T03:48:33.569Z,101958.48
2019-02-22T03:51:01.987Z,101957.12
2019-02-22T03:53:32.048Z,101961.22
2019-02-22T03:56:00.450Z,101962.09
2019-02-22T03:58:28.879Z,101962.72
2019-02-22T04:00:57.435Z,101976.25
2019-02-22T04:03:25.822Z,101969.42
2019-02-22T04:05:54.233Z,101970.30
2019-02-22T04:08:22.646Z,101976.61
2019-02-22T04:10:51.115Z,101981.94
2019-02-22T04:13:19.531Z,101978.36
2019-02-22T04:15:47.952Z,101986.17
2019-02-22T04:18:16.361Z,101979.86
2019-02-22T04:20:44.777Z,101987.93
2019-02-22T04:23:13.210Z,101982.46
2019-02-22T04:25:41.598Z,101982.08
2019-02-22T04:28:10.037Z,101985.33
2019-02-22T04:30:38.447Z,101985.69
2019-02-22T04:33:06.856Z,101983.44
2019-02-22T04:35:35.283Z,101984.81
2019-02-22T04:38:03.678Z,101979.86
2019-02-22T04:40:32.093Z,101983.83
2019-02-22T04:43:00.539Z,101973.88
2019-02-22T04:45:28.943Z,101981.09
2019-02-22T04:47:57.399Z,101983.83
2019-02-22T04:50:25.785Z,101983.31
2019-02-22T04:52:54.172Z,101983.83
2019-02-22T04:55:22.604Z,101991.64
2019-02-22T04:57:51.028Z,101994.02
2019-02-22T05:00:19.465Z,102002.57
2019-02-22T05:02:47.881Z,102002.96
2019-02-22T05:05:16.377Z,102002.96
2019-02-22T05:07:44.791Z,102001.20
2019-02-22T05:10:13.183Z,102003.94
2019-02-22T05:12:41.617Z,102001.20
2019-02-22T05:15:12.768Z,102006.31
2019-02-22T05:17:40.181Z,102010.41
2019-02-22T05:20:08.758Z,102014.02
2019-02-22T05:22:37.182Z,102010.91
2019-02-22T05:25:06.724Z,102009.92
2019-02-22T05:27:35.153Z,102013.63
2019-02-22T05:30:03.854Z,102011.29
2019-02-22T05:32:32.260Z,102015.39
2019-02-22T05:35:00.670Z,102018.61
2019-02-22T05:37:29.087Z,102014.02
2019-02-22T05:39:57.507Z,102024.83
2019-02-22T05:42:28.611Z,102027.56
2019-02-22T05:44:56.166Z,102022.09
2019-02-22T05:47:24.574Z,102021.08
2019-02-22T05:49:52.987Z,102030.78
2019-02-22T05:52:21.395Z,102032.50
2019-02-22T05:54:49.830Z,102034.39
2019-02-22T05:57:18.235Z,102038.09
2019-02-22T05:59:46.665Z,102042.72
2019-02-22T06:02:15.078Z,102049.69
2019-02-22T06:04:43.504Z,102062.21
2019-02-22T06:07:14.475Z,102062.83
2019-02-22T06:09:42.053Z,102066.08
2019-02-22T06:12:10.479Z,102080.11
2019-02-22T06:14:38.903Z,102086.94
2019-02-22T06:17:14.656Z,102084.20
2019-02-22T06:19:37.634Z,102090.91
2019-02-22T06:22:06.063Z,102094.65
2019-02-22T06:24:34.461Z,102106.42
2019-02-22T06:27:02.892Z,102110.53
2019-02-22T06:29:31.282Z,102110.04
2019-02-22T06:31:59.703Z,102109.91
2019-02-22T06:34:28.095Z,102111.77
2019-02-22T06:37:01.660Z,102116.38
2019-02-22T06:39:26.667Z,102119.61
2019-02-22T06:41:55.093Z,102124.59
2019-02-22T06:44:23.511Z,102120.09
2019-02-22T06:46:51.929Z,102120.97
2019-02-22T06:49:20.347Z,102129.78
2019-02-22T06:51:48.784Z,102127.93
2019-02-22T06:54:17.183Z,102119.73
2019-02-22T06:56:45.609Z,102114.75
2019-02-22T06:59:14.013Z,102115.28
2019-02-22T07:01:42.472Z,102116.52
2019-02-22T07:04:10.869Z,102113.03
2019-02-22T07:06:39.255Z,102117.00
2019-02-22T07:09:07.693Z,102123.83
2019-02-22T07:11:38.014Z,102127.45
2019-02-22T07:14:06.433Z,102137.37
2019-02-22T07:16:34.833Z,102146.05
2019-02-22T07:19:03.265Z,102139.22
2019-02-22T07:21:40.372Z,102134.63
2019-02-22T07:24:02.760Z,102138.86
2019-02-22T07:26:31.205Z,102136.00
2019-02-22T07:28:59.651Z,102146.05
2019-02-22T07:31:28.065Z,102148.43
2019-02-22T07:33:56.494Z,102152.05
2019-02-22T07:36:24.948Z,102148.92
2019-02-22T07:38:53.379Z,102148.79
2019-02-22T07:41:21.903Z,102157.51
2019-02-22T07:43:50.295Z,102151.52
2019-02-22T07:46:18.693Z,102154.77
2019-02-22T07:48:47.118Z,102159.36
2019-02-22T07:51:15.522Z,102159.36
2019-02-22T07:53:43.963Z,102160.38
2019-02-22T07:56:12.357Z,102170.30
2019-02-22T07:58:40.817Z,102170.66
2019-02-22T08:01:09.213Z,102177.88
2019-02-22T08:03:37.657Z,102170.53
2019-02-22T08:06:06.064Z,102178.01
2019-02-22T08:08:34.499Z,102183.83
2019-02-22T08:11:02.911Z,102192.03
2019-02-22T08:13:31.329Z,102199.35
2019-02-22T08:15:59.734Z,102207.06
2019-02-22T08:18:28.127Z,102206.19
2019-02-22T08:20:56.563Z,102202.08
2019-02-22T08:23:24.956Z,102198.99
2019-02-22T08:25:53.377Z,102200.84
2019-02-22T08:28:21.778Z,102193.52
2019-02-22T08:30:50.215Z,102199.35
2019-02-22T08:33:18.627Z,102204.81
2019-02-22T08:35:47.066Z,102205.21
2019-02-22T08:38:15.458Z,102210.80
2019-02-22T08:40:43.892Z,102215.75
2019-02-22T08:43:12.299Z,102218.36
2019-02-22T08:45:40.844Z,102222.98
2019-02-22T08:48:09.389Z,102226.07
2019-02-22T08:50:37.801Z,102227.08
2019-02-22T08:53:06.306Z,102233.91
2019-02-22T08:55:36.663Z,102236.13
2019-02-22T08:58:04.841Z,102236.13
2019-02-22T09:00:33.253Z,102235.28
2019-02-22T09:03:01.673Z,102234.88
2019-02-22T09:05:30.071Z,102240.22
2019-02-22T09:07:58.491Z,102246.20
2019-02-22T09:10:26.917Z,102249.30
2019-02-22T09:12:55.323Z,102248.55
2019-02-22T09:15:23.719Z,102239.98
2019-02-22T09:17:52.148Z,102246.08
2019-02-22T09:20:20.549Z,102254.88
2019-02-22T09:22:48.957Z,102258.36
2019-02-22T09:25:17.398Z,102259.48
2019-02-22T09:27:45.807Z,102260.98
2019-02-22T09:30:14.269Z,102260.86
2019-02-22T09:32:42.665Z,102252.01
2019-02-22T09:35:11.645Z,102253.64
2019-02-22T09:37:40.081Z,102263.21
2019-02-22T09:40:14.661Z,102263.57
2019-02-22T09:42:42.501Z,102261.59
2019-02-22T09:45:12.442Z,102265.44
2019-02-22T09:47:40.883Z,102274.61
2019-02-22T09:50:15.412Z,102275.01
2019-02-22T09:52:43.838Z,102276.73
2019-02-22T09:55:13.787Z,102267.42
2019-02-22T09:57:42.243Z,102273.75
2019-02-22T10:00:13.740Z,102271.41
2019-02-22T10:02:44.684Z,102269.52
2019-02-22T10:05:12.437Z,102273.48
2019-02-22T10:07:40.855Z,102282.58
2019-02-22T10:10:10.803Z,102283.06
2019-02-22T10:12:39.213Z,102285.54
2019-02-22T10:15:09.360Z,102276.36
2019-02-22T10:17:37.784Z,102277.47
2019-02-22T10:20:08.823Z,102283.70
2019-02-22T10:22:37.259Z,102284.45
2019-02-22T10:25:06.597Z,102287.41
2019-02-22T10:27:35.007Z,102285.95
2019-02-22T10:30:04.121Z,102280.84
2019-02-22T10:32:32.547Z,102291.78
2019-02-22T10:35:00.975Z,102291.66
2019-02-22T10:37:29.375Z,102293.51
2019-02-22T10:39:57.824Z,102286.05
2019-02-22T10:42:26.228Z,102279.57
2019-02-22T10:44:54.651Z,102289.90
2019-02-22T10:47:23.094Z,102292.63
2019-02-22T10:49:51.571Z,102294.36
2019-02-22T10:52:20.028Z,102294.10
2019-02-22T10:54:48.425Z,102303.55
2019-02-22T10:57:16.868Z,102294.50
2019-02-22T10:59:45.276Z,102302.05
2019-02-22T11:02:13.708Z,102300.33
2019-02-22T11:04:42.132Z,102296.58
2019-02-22T11:07:10.607Z,102295.96
2019-02-22T11:09:39.040Z,102301.92
2019-02-22T11:12:07.797Z,102298.70
2019-02-22T11:14:36.225Z,102299.06
2019-02-22T11:17:04.662Z,102299.06
2019-02-22T11:19:33.078Z,102297.20
2019-02-22T11:22:01.559Z,102302.06
2019-02-22T11:24:29.980Z,102305.28
2019-02-22T11:26:58.392Z,102308.41
2019-02-22T11:29:26.803Z,102306.03
2019-02-22T11:31:55.258Z,102301.57
2019-02-22T11:34:23.782Z,102305.15
2019-02-22T11:36:52.280Z,102313.23
2019-02-22T11:39:20.889Z,102315.61
2019-02-22T11:41:49.306Z,102324.56
2019-02-22T11:44:17.697Z,102324.05
2019-02-22T11:46:46.199Z,102326.78
2019-02-22T11:49:14.602Z,102323.92
2019-02-22T11:51:43.034Z,102329.78
2019-02-22T11:54:11.427Z,102326.03
2019-02-22T11:56:39.943Z,102322.29
2019-02-22T11:59:08.423Z,102326.92
2019-02-22T12:01:36.963Z,102321.94
2019-02-22T12:04:05.498Z,102327.41
2019-02-22T12:06:33.924Z,102322.81
2019-02-22T12:09:02.339Z,102331.52
2019-02-22T12:11:30.743Z,102329.88
2019-02-22T12:13:59.201Z,102324.31
2019-02-22T12:16:27.618Z,102323.69
2019-02-22T12:18:56.041Z,102331.16
2019-02-22T12:21:24.472Z,102334.61
2019-02-22T12:23:53.104Z,102330.14
2019-02-22T12:26:21.594Z,102332.88
2019-02-22T12:28:50.054Z,102327.41
2019-02-22T12:31:18.533Z,102330.14
2019-02-22T12:33:47.119Z,102331.25
2019-02-22T12:36:15.528Z,102336.72
2019-02-22T12:38:43.934Z,102347.55
2019-02-22T12:41:12.375Z,102339.95
2019-02-22T12:43:40.798Z,102336.72
2019-02-22T12:46:09.261Z,102340.83
2019-02-22T12:48:37.722Z,102336.47
2019-02-22T12:51:06.158Z,102341.19
2019-02-22T12:53:34.600Z,102333.23
2019-02-22T12:56:03.077Z,102332.98
2019-02-22T12:58:31.483Z,102340.58
2019-02-22T13:00:59.923Z,102343.17
2019-02-22T13:03:28.597Z,102340.70
2019-02-22T13:05:57.035Z,102351.65
2019-02-22T13:08:25.442Z,102349.40
2019-02-22T13:10:53.924Z,102352.53
2019-02-22T13:13:22.337Z,102352.53
2019-02-22T13:15:50.768Z,102349.80
2019-02-22T13:18:19.211Z,102351.16
2019-02-22T13:20:47.664Z,102357.35
2019-02-22T13:23:16.088Z,102359.73
2019-02-22T13:25:44.501Z,102352.40
2019-02-22T13:28:12.933Z,102363.22
2019-02-22T13:30:41.349Z,102367.32
2019-02-22T13:33:09.792Z,102364.95
2019-02-22T13:35:38.212Z,102365.70
2019-02-22T13:38:06.638Z,102372.89
2019-02-22T13:40:35.054Z,102375.27
2019-02-22T13:43:05.282Z,102369.31
2019-02-22T13:45:33.601Z,102374.78
2019-02-22T13:48:02.036Z,102381.99
2019-02-22T13:50:30.443Z,102379.74
2019-02-22T13:52:58.883Z,102377.88
2019-02-22T13:55:27.297Z,102377.39
2019-02-22T13:57:55.864Z,102378.38
2019-02-22T14:00:24.252Z,102378.89
2019-02-22T14:02:52.695Z,102379.74
2019-02-22T14:05:21.186Z,102383.84
2019-02-22T14:07:56.469Z,102392.45
2019-02-22T14:10:25.925Z,102383.59
2019-02-22T14:12:54.324Z,102390.95
2019-02-22T14:15:22.759Z,102385.97
2019-02-22T14:17:51.151Z,102386.33
2019-02-22T14:20:19.580Z,102385.48
2019-02-22T14:22:49.626Z,102384.95
2019-02-22T14:25:18.103Z,102390.08
2019-02-22T14:27:46.506Z,102395.80
2019-02-22T14:30:16.266Z,102400.02
2019-02-22T14:32:44.695Z,102398.16
2019-02-22T14:35:13.186Z,102400.02
2019-02-22T14:37:41.705Z,102405.36
2019-02-22T14:40:11.956Z,102404.87
2019-02-22T14:42:40.336Z,102398.03
2019-02-22T14:45:10.614Z,102397.54
2019-02-22T14:47:39.082Z,102404.38
2019-02-22T14:50:18.200Z,102416.57
2019-02-22T14:52:46.702Z,102420.28
2019-02-22T14:55:15.178Z,102418.43
2019-02-22T14:57:45.157Z,102413.31
2019-02-22T15:00:16.872Z,102417.29
2019-02-22T15:02:45.319Z,102411.45
2019-02-22T15:05:14.855Z,102416.93
2019-02-22T15:07:43.354Z,102421.53
2019-02-22T15:10:12.234Z,102427.39
2019-02-22T15:12:40.651Z,102430.98
2019-02-22T15:15:16.927Z,102432.34
2019-02-22T15:17:52.644Z,102432.22
2019-02-22T15:20:21.130Z,102434.73
2019-02-22T15:22:49.580Z,102430.62
2019-02-22T15:25:18.925Z,102429.13
2019-02-22T15:27:47.336Z,102422.52
2019-02-22T15:30:16.833Z,102419.77
2019-02-22T15:32:45.274Z,102419.54
2019-02-22T15:35:15.001Z,102418.92
2019-02-22T15:37:43.653Z,102420.03
2019-02-22T15:40:12.784Z,102425.90
2019-02-22T15:42:41.226Z,102427.37
2019-02-22T15:45:19.044Z,102433.59
2019-02-22T15:47:48.818Z,102427.63
2019-02-22T15:50:18.620Z,102419.03
2019-02-22T15:52:48.280Z,102425.25
2019-02-22T15:55:16.668Z,102426.27
2019-02-22T15:57:45.086Z,102431.61
2019-02-22T16:00:25.639Z,102430.60
2019-02-22T16:02:54.118Z,102431.97
2019-02-22T16:05:24.209Z,102429.62
2019-02-22T16:07:52.678Z,102432.97
2019-02-22T16:10:21.211Z,102427.37
2019-02-22T16:12:49.803Z,102430.11
2019-02-22T16:15:18.234Z,102427.50
2019-02-22T16:17:46.647Z,102424.77
2019-02-22T16:20:15.177Z,102425.00
2019-02-22T16:22:43.646Z,102420.27
2019-02-22T16:25:19.627Z,102427.12
2019-02-22T16:27:42.259Z,102428.48
2019-02-22T16:30:15.618Z,102422.16
2019-02-22T16:32:44.029Z,102420.27
2019-02-22T16:35:12.606Z,102418.90
2019-02-22T16:37:41.046Z,102424.89
2019-02-22T16:40:11.075Z,102421.77
2019-02-22T16:42:39.633Z,102418.28
2019-02-22T16:45:12.690Z,102421.77
2019-02-22T16:47:41.122Z,102422.61
2019-02-22T16:50:12.231Z,102425.23
2019-02-22T16:52:40.884Z,102421.25
2019-02-22T16:55:14.836Z,102429.73
2019-02-22T16:57:43.266Z,102432.59
2019-02-22T17:00:13.719Z,102435.20
2019-02-22T17:02:43.006Z,102440.16
2019-02-22T17:05:13.769Z,102440.68
2019-02-22T17:07:42.206Z,102442.89
2019-02-22T17:10:11.586Z,102441.92
2019-02-22T17:12:40.018Z,102443.78
2019-02-22T17:15:10.769Z,102439.31
2019-02-22T17:17:39.225Z,102431.81
2019-02-22T17:20:10.095Z,102435.56
2019-02-22T17:22:38.581Z,102441.40
2019-02-22T17:25:12.880Z,102438.17
2019-02-22T17:27:41.314Z,102440.03
2019-02-22T17:30:17.230Z,102432.83
2019-02-22T17:32:46.120Z,102444.53
2019-02-22T17:35:14.548Z,102452.74
2019-02-22T17:37:42.951Z,102453.10
2019-02-22T17:40:23.145Z,102455.48
2019-02-22T17:42:51.557Z,102455.09
2019-02-22T17:45:19.995Z,102458.84
2019-02-22T17:47:48.405Z,102463.83
2019-02-22T17:50:16.836Z,102467.41
2019-02-22T17:52:45.277Z,102467.80
2019-02-22T17:55:13.764Z,102459.06
2019-02-22T17:57:42.179Z,102467.80
2019-02-22T18:00:15.249Z,102473.28
2019-02-22T18:02:43.697Z,102471.91
2019-02-22T18:05:12.233Z,102480.13
2019-02-22T18:07:40.632Z,102485.51
2019-02-22T18:10:10.516Z,102490.47
2019-02-22T18:12:38.926Z,102484.59
2019-02-22T18:15:15.315Z,102480.75
2019-02-22T18:17:46.764Z,102480.76
2019-02-22T18:20:15.260Z,102484.24
2019-02-22T18:22:43.686Z,102479.65
2019-02-22T18:25:12.138Z,102480.13
2019-02-22T18:27:40.536Z,102479.65
2019-02-22T18:30:19.980Z,102472.92
2019-02-22T18:32:48.402Z,102481.50
2019-02-22T18:35:16.893Z,102477.40
2019-02-22T18:37:45.308Z,102479.25
2019-02-22T18:40:19.059Z,102476.28
2019-02-22T18:42:47.475Z,102476.64
2019-02-22T18:45:15.892Z,102481.14
2019-02-22T18:47:44.312Z,102479.65
2019-02-22T18:50:12.712Z,102480.63
2019-02-22T18:52:41.139Z,102485.48
2019-02-22T18:55:10.740Z,102494.31
2019-02-22T18:57:39.154Z,102497.19
2019-02-22T19:00:11.397Z,102489.84
2019-02-22T19:02:39.818Z,102485.13
2019-02-22T19:05:09.365Z,102488.62
2019-02-22T19:07:37.792Z,102501.43
2019-02-22T19:10:09.341Z,102507.52
2019-02-22T19:12:39.166Z,102513.61
2019-02-22T19:15:10.385Z,102517.59
2019-02-22T19:17:38.828Z,102516.48
2019-02-22T19:20:15.997Z,102514.37
2019-02-22T19:22:44.435Z,102521.95
2019-02-22T19:25:13.014Z,102515.09
2019-02-22T19:27:41.461Z,102521.69
2019-02-22T19:30:13.038Z,102513.47
2019-02-22T19:32:41.476Z,102516.60
2019-02-22T19:35:09.922Z,102522.80
2019-02-22T19:37:38.327Z,102519.09
2019-02-22T19:40:10.409Z,102518.20
2019-02-22T19:42:38.809Z,102519.94
2019-02-22T19:45:09.436Z,102528.02
2019-02-22T19:47:41.748Z,102519.19
2019-02-22T19:50:13.236Z,102517.33
2019-02-22T19:52:41.725Z,102521.94
2019-02-22T19:55:15.041Z,102529.76
2019-02-22T19:57:43.449Z,102535.76
2019-02-22T20:00:18.669Z,102544.34
2019-02-22T20:02:47.226Z,102544.34
2019-02-22T20:05:16.100Z,102544.21
2019-02-22T20:07:44.610Z,102555.42
2019-02-22T20:10:21.218Z,102544.98
2019-02-22T20:12:49.629Z,102545.61
2019-02-22T20:15:18.572Z,102544.34
2019-02-22T20:17:53.838Z,102545.22
2019-02-22T20:20:20.586Z,102549.81
2019-02-22T20:22:49.004Z,102551.55
2019-02-22T20:25:17.410Z,102553.80
2019-02-22T20:27:45.871Z,102559.77
2019-02-22T20:30:16.773Z,102556.18
2019-02-22T20:32:45.189Z,102547.83
2019-02-22T20:35:22.209Z,102549.56
2019-02-22T20:37:52.982Z,102556.05
2019-02-22T20:40:20.770Z,102556.66
2019-02-22T20:42:49.192Z,102559.64
2019-02-22T20:45:17.616Z,102558.78
2019-02-22T20:47:46.065Z,102569.37
2019-02-22T20:50:16.193Z,102570.35
2019-02-22T20:52:44.590Z,102566.63
2019-02-22T20:55:13.185Z,102578.59
2019-02-22T20:57:41.612Z,102580.45
2019-02-22T21:00:23.639Z,102582.34
2019-02-22T21:02:52.068Z,102583.31
2019-02-22T21:05:20.490Z,102583.44
2019-02-22T21:07:48.896Z,102581.71
2019-02-22T21:10:20.393Z,102588.20
2019-02-22T21:12:48.791Z,102597.78
2019-02-22T21:15:17.243Z,102596.15
2019-02-22T21:17:45.655Z,102592.69
2019-02-22T21:20:19.522Z,102592.69
2019-02-22T21:22:48.019Z,102585.45
2019-02-22T21:25:16.584Z,102592.81
2019-02-22T21:27:44.996Z,102583.45
2019-02-22T21:30:15.236Z,102586.70
2019-02-22T21:32:43.761Z,102590.69
2019-02-22T21:35:12.326Z,102590.51
2019-02-22T21:37:42.266Z,102592.77
2019-02-22T21:40:11.745Z,102587.53
2019-02-22T21:42:40.341Z,102590.27
2019-02-22T21:45:13.587Z,102597.73
2019-02-22T21:47:53.779Z,102602.84
2019-02-22T21:50:18.333Z,102592.02
2019-02-22T21:52:47.109Z,102594.39
2019-02-22T21:55:16.214Z,102593.64
2019-02-22T21:57:44.625Z,102588.65
2019-02-22T22:00:20.605Z,102589.17
2019-02-22T22:02:49.036Z,102588.29
2019-02-22T22:05:17.466Z,102595.62
2019-02-22T22:07:45.865Z,102593.00
2019-02-22T22:10:14.323Z,102592.03
2019-02-22T22:12:42.816Z,102588.41
2019-02-22T22:15:12.754Z,102585.80
2019-02-22T22:17:41.180Z,102588.78
2019-02-22T22:20:10.525Z,102584.80
2019-02-22T22:22:39.473Z,102581.06
2019-02-22T22:25:15.121Z,102574.83
2019-02-22T22:27:43.535Z,102583.56
2019-02-22T22:30:14.217Z,102583.56
2019-02-22T22:32:42.724Z,102588.88
2019-02-22T22:35:16.375Z,102587.16
2019-02-22T22:37:44.813Z,102589.77
2019-02-22T22:40:13.319Z,102595.73
2019-02-22T22:42:41.745Z,102597.62
2019-02-22T22:45:14.512Z,102598.11
2019-02-22T22:47:42.945Z,102600.36
2019-02-22T22:50:12.987Z,102604.19
2019-02-22T22:52:41.423Z,102593.76
2019-02-22T22:55:10.984Z,102601.45
2019-02-22T22:57:39.379Z,102598.35
2019-02-22T23:00:30.650Z,102590.14
2019-02-22T23:02:59.157Z,102594.38
2019-02-22T23:05:27.556Z,102592.12
2019-02-22T23:07:55.994Z,102589.02
2019-02-22T23:10:24.435Z,102585.89
2019-02-22T23:12:52.875Z,102590.88
2019-02-22T23:15:21.336Z,102597.36
2019-02-22T23:17:49.754Z,102596.84
2019-02-22T23:20:18.146Z,102599.69
2019-02-22T23:22:46.579Z,102605.30
2019-02-22T23:25:14.975Z,102613.14
2019-02-22T23:27:43.393Z,102612.89
2019-02-22T23:30:11.858Z,102618.00
2019-02-22T23:32:40.288Z,102620.74
2019-02-22T23:35:08.773Z,102625.09
2019-02-22T23:37:37.181Z,102625.09
2019-02-22T23:40:06.045Z,102635.64
2019-02-22T23:42:34.437Z,102635.03
2019-02-22T23:45:02.863Z,102637.02
2019-02-22T23:47:31.289Z,102643.97
2019-02-22T23:49:59.683Z,102649.97
2019-02-22T23:52:28.116Z,102643.61
2019-02-22T23:54:56.536Z,102653.19
2019-02-22T23:57:25.015Z,102657.41
2019-02-22T23:59:53.546Z,102660.03
